Time;durP1;ratioP1;P1;durP2;ratioP2;P2;SDS_P1;SDS_P2;PMS_P1;PMS_P2;Temp;Humidity;BMP_temperature;BMP_pressure;BME280_temperature;BME280_humidity;BME280_pressure;Samples;Min_cycle;Max_cycle;Signal;HPM_P1;HPM_P2
2021/05/29 00:01:48;;;;;;;2.04;0.54;;;;;;;11.61;73.91;99847.50;2010465;80;20938;-77
2021/05/29 00:04:50;;;;;;;3.60;0.60;;;;;;;11.62;73.98;99843.16;2011280;80;20303;-79
2021/05/29 00:07:53;;;;;;;1.58;0.65;;;;;;;11.59;73.96;99849.25;2011737;80;20212;-78
2021/05/29 00:10:58;;;;;;;0.70;0.70;;;;;;;11.56;73.14;99849.25;2011705;80;20184;-78
2021/05/29 00:14:03;;;;;;;1.23;0.65;;;;;;;11.52;73.86;99849.28;2012509;80;20176;-77
2021/05/29 00:17:07;;;;;;;2.61;0.66;;;;;;;11.49;73.95;99850.16;2009148;78;20532;-78
2021/05/29 00:20:10;;;;;;;0.90;0.60;;;;;;;11.46;73.85;99855.31;2010234;80;20218;-78
2021/05/29 00:23:14;;;;;;;4.94;0.70;;;;;;;11.47;73.58;99857.03;2009701;80;20707;-78
2021/05/29 00:26:16;;;;;;;3.10;0.77;;;;;;;11.44;74.34;99844.91;2009720;80;20180;-79
2021/05/29 00:29:19;;;;;;;0.65;0.65;;;;;;;11.43;73.91;99855.31;2010980;80;20192;-78
2021/05/29 00:32:24;;;;;;;2.22;0.69;;;;;;;11.37;74.44;99853.59;2010987;77;21064;-78
2021/05/29 00:35:27;;;;;;;1.41;0.69;;;;;;;11.30;75.43;99850.97;2011675;80;20160;-78
2021/05/29 00:38:30;;;;;;;0.74;0.66;;;;;;;11.21;75.97;99851.88;2012445;80;20312;-78
2021/05/29 00:41:33;;;;;;;0.66;0.66;;;;;;;11.16;76.31;99851.00;2011171;80;20168;-78
2021/05/29 00:44:50;;;;;;;3.75;0.69;;;;;;;11.13;76.28;99844.06;2012144;80;20669;-78
2021/05/29 00:47:52;;;;;;;0.98;0.75;;;;;;;11.12;76.35;99838.84;2010400;77;21737;-78
2021/05/29 00:51:01;;;;;;;3.16;0.70;;;;;;;11.14;76.25;99829.34;2015033;80;20201;-78
2021/05/29 00:54:05;;;;;;;1.20;0.60;;;;;;;11.08;76.37;99840.59;2012129;80;20200;-78
2021/05/29 00:57:11;;;;;;;2.53;0.75;;;;;;;11.02;76.46;99827.59;2011682;80;20696;-78
2021/05/29 01:00:18;;;;;;;0.82;0.66;;;;;;;11.03;76.62;99833.66;2010427;80;20232;-72
2021/05/29 01:03:21;;;;;;;0.79;0.51;;;;;;;10.96;76.88;99830.22;2008001;80;20724;-72
2021/05/29 01:06:23;;;;;;;1.23;0.73;;;;;;;10.94;77.16;99820.66;2006337;80;20234;-72
2021/05/29 01:09:26;;;;;;;2.76;0.70;;;;;;;10.88;77.23;99822.38;2006410;80;20257;-72
2021/05/29 01:12:29;;;;;;;1.67;0.60;;;;;;;10.88;76.95;99826.72;2005576;80;20193;-72
2021/05/29 01:15:38;;;;;;;1.23;0.70;;;;;;;10.83;76.58;99826.72;2006369;80;23633;-72
2021/05/29 01:18:40;;;;;;;3.15;0.60;;;;;;;10.79;76.36;99829.31;2011683;80;20270;-72
2021/05/29 01:21:43;;;;;;;2.15;0.64;;;;;;;10.72;76.24;99832.75;2011635;80;20173;-73
2021/05/29 01:24:46;;;;;;;0.98;0.70;;;;;;;10.67;76.64;99837.06;2011622;80;20180;-72
2021/05/29 01:28:11;;;;;;;1.45;0.70;;;;;;;10.59;76.90;99839.63;2011820;80;20998;-72
2021/05/29 01:31:14;;;;;;;3.53;0.60;;;;;;;10.48;77.48;99838.75;2008715;78;20242;-72
2021/05/29 01:34:20;;;;;;;4.34;1.11;;;;;;;10.38;77.41;99837.84;2006531;80;20200;-73
2021/05/29 01:37:23;;;;;;;0.70;0.70;;;;;;;10.34;77.41;99837.84;2006106;80;20177;-72
2021/05/29 01:40:25;;;;;;;0.85;0.60;;;;;;;10.23;77.36;99832.59;2008035;80;20180;-72
2021/05/29 01:43:28;;;;;;;2.94;0.80;;;;;;;10.16;77.45;99831.66;2007406;80;20497;-71
2021/05/29 01:46:31;;;;;;;1.65;0.70;;;;;;;10.07;77.82;99836.84;2007204;78;22647;-72
2021/05/29 01:49:33;;;;;;;1.30;0.64;;;;;;;9.89;78.11;99832.41;2007622;80;20197;-72
2021/05/29 01:52:56;;;;;;;2.83;0.64;;;;;;;9.84;78.24;99836.69;2007933;80;20198;-72
2021/05/29 01:56:00;;;;;;;3.38;0.84;;;;;;;9.81;78.53;99835.81;2007293;80;20194;-72
2021/05/29 01:59:02;;;;;;;1.40;0.80;;;;;;;9.67;79.11;99830.53;2007676;80;20220;-73
2021/05/29 02:02:05;;;;;;;2.70;0.70;;;;;;;9.61;79.19;99831.38;2007761;78;20915;-72
2021/05/29 02:05:16;;;;;;;2.08;0.64;;;;;;;9.53;79.15;99835.66;2008987;80;20181;-72
2021/05/29 02:08:20;;;;;;;0.93;0.70;;;;;;;9.49;79.38;99831.28;2009273;80;20206;-73
2021/05/29 02:11:23;;;;;;;1.42;0.91;;;;;;;9.51;79.21;99834.75;2008544;80;20177;-72
2021/05/29 02:14:25;;;;;;;1.01;0.68;;;;;;;9.52;79.04;99843.44;2009149;80;20814;-73
2021/05/29 02:17:28;;;;;;;1.26;0.76;;;;;;;9.48;79.07;99833.88;2008228;79;21092;-72
2021/05/29 02:20:36;;;;;;;1.66;0.63;;;;;;;9.42;78.80;99832.09;2008892;80;20177;-72
2021/05/29 02:23:48;;;;;;;0.60;0.60;;;;;;;9.35;79.00;99841.56;2009286;80;20258;-73
2021/05/29 02:26:51;;;;;;;2.67;0.69;;;;;;;9.25;79.28;99844.06;2008933;80;20669;-72
2021/05/29 02:29:53;;;;;;;1.81;0.50;;;;;;;9.20;79.54;99850.94;2009426;80;20177;-73
2021/05/29 02:32:56;;;;;;;0.99;0.69;;;;;;;9.18;79.45;99840.56;2008245;78;20217;-72
2021/05/29 02:35:59;;;;;;;2.85;0.55;;;;;;;9.19;79.34;99844.03;2009106;80;20185;-73
2021/05/29 02:39:03;;;;;;;2.20;0.59;;;;;;;9.08;79.40;99847.38;2008896;80;20193;-72
2021/05/29 02:42:07;;;;;;;4.44;0.60;;;;;;;9.01;79.53;99848.19;2009677;80;20231;-72
2021/05/29 02:45:10;;;;;;;1.49;0.68;;;;;;;8.96;79.76;99847.25;2008878;80;20203;-73
2021/05/29 02:48:14;;;;;;;0.56;0.56;;;;;;;8.88;79.78;99858.41;2008828;78;34761;-72
2021/05/29 02:51:16;;;;;;;0.60;0.60;;;;;;;8.87;79.85;99849.78;2008570;80;20236;-72
2021/05/29 02:54:21;;;;;;;4.00;0.77;;;;;;;8.87;79.85;99848.91;2008856;80;20180;-72
2021/05/29 02:57:24;;;;;;;1.58;0.65;;;;;;;8.79;79.82;99854.00;2004159;80;20176;-72
2021/05/29 03:00:39;;;;;;;1.46;0.70;;;;;;;8.66;80.03;99853.03;2006865;78;21097;-73
2021/05/29 03:03:42;;;;;;;0.99;0.75;;;;;;;8.64;80.19;99849.56;2007430;80;20173;-72
2021/05/29 03:06:44;;;;;;;2.49;0.80;;;;;;;8.46;80.49;99859.69;2006867;80;20214;-72
2021/05/29 03:09:47;;;;;;;2.72;0.80;;;;;;;8.41;80.66;99861.34;2007144;80;20744;-73
2021/05/29 03:12:50;;;;;;;2.56;0.68;;;;;;;8.37;80.60;99867.34;2006759;80;20264;-72
2021/05/29 03:15:53;;;;;;;0.79;0.60;;;;;;;8.35;80.79;99871.63;2005206;78;20204;-72
2021/05/29 03:18:55;;;;;;;2.01;0.90;;;;;;;8.33;80.83;99874.16;2006834;80;20234;-72
2021/05/29 03:21:58;;;;;;;0.99;0.65;;;;;;;8.31;80.79;99869.81;2007094;80;20173;-71
2021/05/29 03:25:02;;;;;;;1.27;0.60;;;;;;;8.19;81.02;99879.16;2006160;80;20317;-72
2021/05/29 03:28:04;;;;;;;2.06;0.74;;;;;;;8.13;81.28;99878.22;2006753;80;20251;-72
2021/05/29 03:31:07;;;;;;;2.10;0.60;;;;;;;8.10;81.16;99883.34;2005742;78;20707;-71
2021/05/29 03:34:10;;;;;;;1.92;0.70;;;;;;;8.08;80.95;99892.81;2012165;80;20349;-71
2021/05/29 03:37:13;;;;;;;1.11;0.70;;;;;;;8.02;81.02;99896.16;2011985;80;20311;-72
2021/05/29 03:40:16;;;;;;;0.70;0.70;;;;;;;8.01;81.14;99885.81;2011441;80;20198;-71
2021/05/29 03:43:19;;;;;;;3.50;0.70;;;;;;;8.00;81.31;99892.69;2011865;80;20358;-71
2021/05/29 03:46:21;;;;;;;1.04;0.80;;;;;;;7.95;81.47;99890.91;2010310;78;23359;-72
2021/05/29 03:49:24;;;;;;;1.24;0.70;;;;;;;7.93;81.53;99896.06;2011614;80;20318;-72
2021/05/29 03:52:27;;;;;;;4.45;1.06;;;;;;;7.86;81.76;99889.03;2011599;80;20330;-72
2021/05/29 03:55:32;;;;;;;0.99;0.63;;;;;;;7.83;81.80;99889.88;2011886;80;20865;-71
2021/05/29 03:58:34;;;;;;;1.29;0.86;;;;;;;7.78;81.87;99896.69;2011710;80;20330;-72
2021/05/29 04:01:38;;;;;;;1.14;0.89;;;;;;;7.77;81.64;99900.13;2010395;78;24982;-72
2021/05/29 04:04:41;;;;;;;6.43;1.10;;;;;;;7.74;81.71;99905.25;2011836;80;20429;-71
2021/05/29 04:07:43;;;;;;;1.24;0.80;;;;;;;7.73;81.92;99900.06;2011187;80;20807;-71
2021/05/29 04:10:48;;;;;;;2.24;0.90;;;;;;;7.75;81.94;99896.66;2011177;80;20369;-80
2021/05/29 04:13:50;;;;;;;0.80;0.80;;;;;;;7.77;82.05;99907.88;2012379;80;20375;-79
2021/05/29 04:16:53;;;;;;;1.04;0.94;;;;;;;7.81;82.18;99907.06;2010696;77;21163;-79
2021/05/29 04:19:55;;;;;;;2.00;0.85;;;;;;;7.86;82.42;99915.75;2011570;80;20933;-80
2021/05/29 04:22:58;;;;;;;2.38;0.80;;;;;;;7.98;82.28;99914.22;2011384;80;20772;-79
2021/05/29 04:26:01;;;;;;;1.96;0.79;;;;;;;8.07;82.16;99909.16;2011165;80;20509;-79
2021/05/29 04:29:04;;;;;;;1.01;0.91;;;;;;;8.18;82.19;99910.19;2011934;80;20387;-80
2021/05/29 04:32:07;;;;;;;1.95;1.02;;;;;;;8.23;82.34;99913.69;2010776;78;22048;-79
2021/05/29 04:35:10;;;;;;;2.16;0.77;;;;;;;8.33;82.61;99917.28;2011735;80;20189;-79
2021/05/29 04:38:12;;;;;;;1.81;0.76;;;;;;;8.41;82.45;99916.53;2011881;80;20192;-78
2021/05/29 04:41:15;;;;;;;0.89;0.80;;;;;;;8.57;82.20;99920.19;2011943;80;20233;-80
2021/05/29 04:44:18;;;;;;;3.44;0.79;;;;;;;8.70;81.92;99922.09;2011952;80;20219;-80
2021/05/29 04:47:20;;;;;;;1.02;0.90;;;;;;;8.85;81.91;99925.72;2007707;78;20209;-80
2021/05/29 04:50:23;;;;;;;3.42;0.82;;;;;;;8.99;81.67;99925.00;2006355;80;20817;-78
2021/05/29 04:53:26;;;;;;;1.51;0.61;;;;;;;9.23;81.47;99926.97;2006825;80;20188;-79
2021/05/29 04:56:31;;;;;;;1.91;0.71;;;;;;;9.53;80.87;99926.38;2006639;80;20189;-79
2021/05/29 04:59:33;;;;;;;5.39;0.80;;;;;;;9.90;79.72;99930.13;2006904;80;20194;-79
2021/05/29 05:02:36;;;;;;;3.08;0.90;;;;;;;10.31;78.59;99924.34;2010513;77;22457;-78
2021/05/29 05:05:39;;;;;;;0.80;0.80;;;;;;;10.82;76.89;99923.69;2012085;80;20328;-79
2021/05/29 05:08:42;;;;;;;1.30;0.82;;;;;;;11.32;75.07;99920.34;2011397;80;20180;-80
2021/05/29 05:11:45;;;;;;;1.60;1.00;;;;;;;11.74;73.49;99927.28;2012180;80;20197;-79
2021/05/29 05:14:47;;;;;;;1.60;0.90;;;;;;;12.18;71.81;99925.50;2011511;80;20843;-80
2021/05/29 05:17:50;;;;;;;3.31;1.00;;;;;;;12.57;70.18;99927.13;2005442;78;23951;-72
2021/05/29 05:20:53;;;;;;;1.94;0.88;;;;;;;12.88;68.10;99933.91;2006334;80;20346;-72
2021/05/29 05:23:56;;;;;;;2.11;1.02;;;;;;;13.15;67.23;99935.53;2006322;80;20237;-72
2021/05/29 05:26:59;;;;;;;2.30;0.86;;;;;;;13.40;66.71;99930.16;2006588;80;20216;-75
2021/05/29 05:30:04;;;;;;;2.28;0.80;;;;;;;13.70;65.10;99934.28;2005948;80;20185;-73
2021/05/29 05:33:07;;;;;;;6.86;1.21;;;;;;;14.22;63.13;99926.84;2012325;78;20682;-73
2021/05/29 05:36:11;;;;;;;2.10;0.98;;;;;;;14.82;60.55;99935.72;2012241;80;20820;-73
2021/05/29 05:39:14;;;;;;;3.17;1.39;;;;;;;15.38;58.84;99930.59;2011221;80;20269;-74
2021/05/29 05:42:16;;;;;;;5.18;1.44;;;;;;;15.81;57.51;99941.28;2011832;80;20610;-73
2021/05/29 05:45:19;;;;;;;3.55;2.22;;;;;;;16.12;56.38;99936.34;2010172;78;20216;-73
2021/05/29 05:48:22;;;;;;;5.04;2.40;;;;;;;16.40;54.70;99935.84;2006553;80;20184;-73
2021/05/29 05:51:26;;;;;;;3.81;2.19;;;;;;;16.43;53.91;99941.88;2006699;80;20180;-73
2021/05/29 05:54:28;;;;;;;4.50;1.67;;;;;;;16.82;53.19;99940.25;2005978;80;20255;-73
2021/05/29 05:57:34;;;;;;;6.16;2.14;;;;;;;17.12;52.25;99945.72;2006495;80;20205;-73
2021/05/29 06:00:36;;;;;;;11.61;2.10;;;;;;;17.41;50.45;99950.31;2006262;78;22522;-70
2021/05/29 06:03:39;;;;;;;5.26;1.88;;;;;;;17.71;49.16;99946.13;2011660;80;20233;-70
2021/05/29 06:06:42;;;;;;;3.40;1.52;;;;;;;18.15;48.04;99949.41;2011781;80;20188;-71
2021/05/29 06:09:45;;;;;;;4.55;1.20;;;;;;;18.42;47.13;99962.66;2011154;80;20176;-71
2021/05/29 06:12:50;;;;;;;2.14;1.00;;;;;;;18.69;46.70;99960.22;2011913;80;20200;-72
2021/05/29 06:19:22;;;;;;;1.26;0.70;;;;;;;19.08;45.30;99966.09;2004843;80;20177;-70
2021/05/29 06:22:24;;;;;;;1.69;0.64;;;;;;;19.04;44.37;99972.34;2005522;80;20205;-71
2021/05/29 06:25:27;;;;;;;0.70;0.50;;;;;;;19.25;44.63;99968.22;2007907;80;20931;-78
2021/05/29 06:28:30;;;;;;;0.70;0.60;;;;;;;19.42;44.28;99967.69;2013227;80;20193;-79
2021/05/29 06:31:33;;;;;;;2.17;0.71;;;;;;;19.45;44.40;99975.50;2010579;78;26004;-79
2021/05/29 06:34:35;;;;;;;3.92;0.90;;;;;;;19.63;43.41;99980.22;2016225;80;20244;-77
2021/05/29 06:37:38;;;;;;;3.89;0.80;;;;;;;19.63;42.31;99971.44;2015219;80;20214;-79
2021/05/29 06:40:41;;;;;;;0.79;0.43;;;;;;;19.78;42.69;99982.34;2016115;80;20202;-80
2021/05/29 06:43:44;;;;;;;1.41;0.50;;;;;;;19.90;41.98;99979.28;2019406;80;20168;-79
2021/05/29 06:46:46;;;;;;;1.56;0.50;;;;;;;20.07;41.13;99980.50;2010571;78;23191;-76
2021/05/29 06:49:50;;;;;;;0.81;0.50;;;;;;;20.14;41.13;99982.91;2009794;80;20291;-79
2021/05/29 06:52:56;;;;;;;0.75;0.57;;;;;;;20.30;40.70;99987.66;2010663;80;20169;-75
2021/05/29 06:59:24;;;;;;;0.86;0.60;;;;;;;20.46;40.71;99983.56;2009524;80;20177;-79
2021/05/29 07:02:26;;;;;;;1.02;0.60;;;;;;;20.79;40.10;99987.66;2013643;80;22756;-79
2021/05/29 07:05:29;;;;;;;1.23;0.50;;;;;;;21.02;39.03;99985.94;2104389;70;20310;-76
2021/05/29 07:08:32;;;;;;;0.66;0.50;;;;;;;21.11;38.39;99988.22;2011772;80;20247;-78
2021/05/29 07:11:38;;;;;;;1.83;0.60;;;;;;;21.14;39.45;99977.53;2014530;80;20165;-78
2021/05/29 07:14:40;;;;;;;3.90;0.50;;;;;;;21.16;39.31;99985.41;2011388;80;20231;-79
2021/05/29 07:17:45;;;;;;;1.45;0.54;;;;;;;21.03;39.09;99979.75;2007438;78;27472;-80
2021/05/29 07:20:48;;;;;;;2.14;0.59;;;;;;;20.81;39.46;99979.66;2010879;81;20217;-81
2021/05/29 07:23:56;;;;;;;2.76;0.57;;;;;;;20.91;39.24;99986.34;2012169;81;20203;-79
2021/05/29 07:26:59;;;;;;;1.52;0.59;;;;;;;20.87;38.08;99986.53;2010948;80;20195;-81
2021/05/29 07:30:07;;;;;;;1.84;0.60;;;;;;;21.07;39.56;99986.63;2010060;80;20181;-81
2021/05/29 07:33:10;;;;;;;3.58;0.41;;;;;;;21.25;39.24;99977.19;2016727;78;20233;-81
2021/05/29 07:36:12;;;;;;;0.77;0.50;;;;;;;21.59;38.36;99979.34;2018789;80;20168;-80
2021/05/29 07:39:15;;;;;;;2.13;0.41;;;;;;;21.89;37.04;99986.03;2017847;80;20169;-85
2021/05/29 07:42:18;;;;;;;0.51;0.40;;;;;;;22.05;35.71;99980.13;2020788;80;20247;-73
2021/05/29 07:45:21;;;;;;;0.70;0.38;;;;;;;22.05;35.61;99981.00;2102611;70;20796;-76
2021/05/29 07:48:23;;;;;;;2.63;0.40;;;;;;;22.02;35.63;99979.31;2009552;80;20765;-75
2021/05/29 07:51:26;;;;;;;1.01;0.40;;;;;;;22.08;36.53;99972.91;2007334;80;20215;-75
2021/05/29 07:54:31;;;;;;;0.61;0.40;;;;;;;22.10;35.87;99980.81;2007616;80;20250;-75
2021/05/29 07:57:34;;;;;;;0.68;0.40;;;;;;;22.11;35.60;99978.09;2007067;80;20195;-75
2021/05/29 08:00:36;;;;;;;0.71;0.41;;;;;;;21.99;35.45;99979.44;2005100;79;21790;-72
2021/05/29 08:03:39;;;;;;;0.44;0.40;;;;;;;21.96;35.34;99978.72;2006865;80;20181;-72
2021/05/29 08:06:41;;;;;;;3.58;0.50;;;;;;;21.99;35.44;99979.44;2006501;80;20213;-73
2021/05/29 08:09:44;;;;;;;0.91;0.40;;;;;;;22.08;34.46;99977.34;2006516;80;20625;-73
2021/05/29 08:12:49;;;;;;;1.59;0.43;;;;;;;22.20;35.05;99976.84;2006735;80;20599;-73
2021/05/29 08:15:53;;;;;;;1.23;0.39;;;;;;;22.24;34.88;99981.06;2004839;78;22078;-72
2021/05/29 08:18:55;;;;;;;1.84;0.31;;;;;;;22.33;34.58;99977.19;2001502;81;20267;-76
2021/05/29 08:21:58;;;;;;;0.64;0.50;;;;;;;22.42;35.01;99982.91;2001609;81;20186;-71
2021/05/29 08:25:01;;;;;;;0.52;0.40;;;;;;;22.63;34.96;99982.94;2001165;81;20190;-73
2021/05/29 08:28:04;;;;;;;0.64;0.40;;;;;;;22.69;34.67;99970.28;2001534;81;21019;-73
2021/05/29 08:31:07;;;;;;;2.34;0.40;;;;;;;22.91;34.97;99978.13;1998791;78;20975;-74
2021/05/29 08:34:10;;;;;;;2.00;0.54;;;;;;;23.04;33.35;99981.09;2007033;80;20185;-73
2021/05/29 08:37:13;;;;;;;0.39;0.39;;;;;;;23.04;33.39;99981.94;2006617;80;20246;-73
2021/05/29 08:40:18;;;;;;;1.89;0.99;;;;;;;23.02;32.97;99981.16;2007396;80;20934;-73
2021/05/29 08:43:21;;;;;;;1.73;0.95;;;;;;;22.83;33.60;99978.50;2007000;80;21148;-73
2021/05/29 08:46:24;;;;;;;2.11;1.02;;;;;;;22.84;31.82;99974.91;2003528;78;21009;-73
2021/05/29 08:49:28;;;;;;;1.89;0.70;;;;;;;22.89;31.79;99985.28;2001438;81;20255;-73
2021/05/29 08:52:36;;;;;;;2.46;0.50;;;;;;;22.81;32.54;99980.31;2002259;81;20182;-73
2021/05/29 08:55:39;;;;;;;0.79;0.40;;;;;;;22.85;32.57;99984.56;2001889;81;20189;-73
2021/05/29 08:58:42;;;;;;;0.69;0.40;;;;;;;22.99;32.39;99977.78;2001397;81;20310;-73
2021/05/29 09:01:44;;;;;;;0.81;0.40;;;;;;;23.07;32.08;99983.59;2004170;78;22850;-73
2021/05/29 09:05:09;;;;;;;1.29;0.56;;;;;;;23.09;32.24;99984.38;2006725;80;20197;-73
2021/05/29 09:08:13;;;;;;;1.24;0.88;;;;;;;23.07;31.13;99988.88;2007406;80;20906;-73
2021/05/29 09:11:40;;;;;;;0.96;0.59;;;;;;;23.12;31.72;99984.22;2006559;80;20162;-73
2021/05/29 09:14:43;;;;;;;1.04;0.43;;;;;;;23.39;31.62;99987.38;2006968;80;20689;-73
2021/05/29 09:17:45;;;;;;;1.24;0.60;;;;;;;23.55;30.77;99982.22;2000994;79;21083;-72
2021/05/29 09:20:48;;;;;;;1.38;0.50;;;;;;;23.63;31.36;99990.69;2001272;81;20186;-73
2021/05/29 09:24:05;;;;;;;0.73;0.50;;;;;;;23.64;31.99;99990.59;2001642;81;20223;-73
2021/05/29 09:27:09;;;;;;;0.80;0.69;;;;;;;23.70;30.72;99992.97;2000813;81;20161;-72
2021/05/29 09:30:12;;;;;;;1.17;1.05;;;;;;;23.55;30.76;99987.53;2001341;80;20169;-73
2021/05/29 09:33:25;;;;;;;0.84;0.70;;;;;;;23.37;31.04;99994.56;2006019;78;30390;-73
2021/05/29 09:36:28;;;;;;;1.59;0.40;;;;;;;23.42;30.85;99995.19;2006582;80;20173;-72
2021/05/29 09:39:31;;;;;;;1.73;0.40;;;;;;;23.78;31.15;99995.25;2007051;80;20213;-74
2021/05/29 09:42:40;;;;;;;0.86;0.35;;;;;;;23.65;29.66;99996.75;2006775;80;20200;-72
2021/05/29 09:45:43;;;;;;;1.49;0.50;;;;;;;23.62;30.23;99996.91;2009663;78;22858;-72
2021/05/29 09:48:55;;;;;;;3.74;0.40;;;;;;;23.66;31.00;99985.22;2011713;80;20401;-73
2021/05/29 09:51:58;;;;;;;2.14;0.50;;;;;;;23.77;30.63;99993.53;2011604;80;20798;-74
2021/05/29 09:55:05;;;;;;;1.52;0.50;;;;;;;23.78;30.32;100001.41;2011829;80;20245;-74
2021/05/29 09:58:07;;;;;;;0.88;0.60;;;;;;;23.10;31.06;99996.69;2014748;80;20189;-73
2021/05/29 10:01:10;;;;;;;2.47;0.40;;;;;;;22.40;32.05;100000.66;2008412;80;22349;-72
2021/05/29 10:04:14;;;;;;;4.94;0.40;;;;;;;21.93;33.28;100005.28;2007305;80;20220;-74
2021/05/29 10:07:17;;;;;;;2.05;0.60;;;;;;;22.08;33.31;99990.56;2007238;80;20331;-74
2021/05/29 10:10:20;;;;;;;1.15;0.50;;;;;;;21.64;34.18;100004.66;2007752;80;20235;-78
2021/05/29 10:13:23;;;;;;;1.42;0.50;;;;;;;21.25;33.94;100008.88;2008505;80;20220;-77
2021/05/29 10:16:27;;;;;;;0.50;0.40;;;;;;;21.71;34.70;100000.84;2008300;80;21141;-77
2021/05/29 10:19:31;;;;;;;0.54;0.40;;;;;;;22.28;33.14;100001.19;2009103;80;20208;-77
2021/05/29 10:22:33;;;;;;;0.36;0.34;;;;;;;22.50;32.73;100009.94;2008700;80;20193;-77
2021/05/29 10:25:36;;;;;;;1.56;0.40;;;;;;;22.43;31.27;100008.47;2008570;80;20232;-77
2021/05/29 10:28:44;;;;;;;1.76;0.36;;;;;;;22.33;31.92;100006.28;2007569;80;20234;-77
2021/05/29 10:31:46;;;;;;;2.36;0.51;;;;;;;22.12;32.29;100008.06;2011306;79;22041;-77
2021/05/29 10:35:09;;;;;;;7.54;0.60;;;;;;;22.13;33.03;100000.06;2013542;80;20327;-77
2021/05/29 10:38:13;;;;;;;1.02;0.51;;;;;;;22.59;32.65;99998.06;2013245;80;20190;-77
2021/05/29 10:41:48;;;;;;;0.41;0.40;;;;;;;22.94;31.53;100006.25;2013455;80;20721;-78
2021/05/29 10:44:50;;;;;;;0.79;0.40;;;;;;;23.05;31.60;100012.81;2013407;80;20238;-77
2021/05/29 10:48:07;;;;;;;2.39;0.40;;;;;;;23.39;31.58;100013.91;2007521;78;26822;-77
2021/05/29 10:51:11;;;;;;;1.14;0.52;;;;;;;23.22;29.41;100014.69;2008824;80;20182;-79
2021/05/29 10:54:16;;;;;;;1.64;0.30;;;;;;;23.38;30.79;100006.88;2009336;80;20188;-78
2021/05/29 10:57:19;;;;;;;1.13;0.41;;;;;;;23.72;30.42;100007.03;2008620;80;20664;-79
2021/05/29 11:00:37;;;;;;;0.82;0.30;;;;;;;23.73;28.39;100008.72;2009458;78;20180;-78
2021/05/29 11:03:40;;;;;;;1.11;0.30;;;;;;;23.59;28.69;100000.56;2014503;80;20180;-78
2021/05/29 11:06:48;;;;;;;0.73;0.30;;;;;;;23.64;29.88;100000.34;2013783;80;20212;-78
2021/05/29 11:09:53;;;;;;;0.49;0.29;;;;;;;23.39;28.40;100005.94;2014745;80;20785;-79
2021/05/29 11:12:57;;;;;;;1.33;0.30;;;;;;;23.17;29.19;99996.34;2013801;80;20172;-80
2021/05/29 11:16:00;;;;;;;0.35;0.20;;;;;;;23.62;29.65;100004.88;2011265;78;26165;-78
2021/05/29 11:19:17;;;;;;;0.20;0.20;;;;;;;23.38;27.87;99993.63;2008481;80;20289;-79
2021/05/29 11:22:22;;;;;;;1.58;0.30;;;;;;;23.33;30.09;99991.16;2010168;80;20162;-78
2021/05/29 11:25:26;;;;;;;0.63;0.20;;;;;;;23.68;28.95;100000.13;2008688;80;20194;-78
2021/05/29 11:28:29;;;;;;;0.20;0.20;;;;;;;24.00;28.01;99995.88;2008988;80;20171;-78
2021/05/29 11:31:43;;;;;;;0.29;0.20;;;;;;;24.23;27.96;99996.50;2010127;78;31969;-78
2021/05/29 11:34:45;;;;;;;0.80;0.20;;;;;;;24.44;27.56;99984.00;2013695;80;20740;-79
2021/05/29 11:38:01;;;;;;;0.85;0.50;;;;;;;24.73;26.91;99974.47;2014730;80;20198;-79
2021/05/29 11:41:08;;;;;;;0.89;0.29;;;;;;;24.84;26.06;99980.94;2013024;80;20313;-79
2021/05/29 11:44:19;;;;;;;0.76;0.30;;;;;;;24.92;27.05;99978.72;2013347;80;20267;-78
2021/05/29 11:47:22;;;;;;;3.11;0.39;;;;;;;25.17;27.27;99980.94;2011958;78;23037;-80
2021/05/29 11:50:25;;;;;;;1.65;0.30;;;;;;;25.15;27.21;99984.66;2007892;80;20191;-79
2021/05/29 11:53:27;;;;;;;3.72;0.30;;;;;;;24.66;26.63;99979.28;2007091;80;20195;-79
2021/05/29 11:56:31;;;;;;;0.41;0.30;;;;;;;24.18;27.56;99977.31;2007901;80;20187;-80
2021/05/29 11:59:34;;;;;;;1.21;0.29;;;;;;;23.65;28.58;99981.72;2008433;80;20173;-79
2021/05/29 12:02:48;;;;;;;0.30;0.20;;;;;;;23.35;29.53;99986.69;2007974;79;20369;-78
2021/05/29 12:05:51;;;;;;;0.20;0.20;;;;;;;23.27;29.90;99985.31;2008447;80;20189;-78
2021/05/29 12:08:56;;;;;;;2.30;0.20;;;;;;;23.11;29.58;99980.72;2009261;80;20230;-78
2021/05/29 12:12:00;;;;;;;1.33;0.25;;;;;;;23.04;29.94;99981.94;2008286;80;20233;-79
2021/05/29 12:15:22;;;;;;;0.24;0.20;;;;;;;23.17;30.01;99977.81;2008416;78;23663;-77
2021/05/29 12:18:25;;;;;;;0.26;0.20;;;;;;;23.53;29.15;99977.00;2013327;80;20188;-77
2021/05/29 12:21:48;;;;;;;0.65;0.20;;;;;;;23.91;29.13;99968.97;2012623;80;20177;-78
2021/05/29 12:24:59;;;;;;;0.54;0.26;;;;;;;24.14;28.81;99978.44;2012778;80;20317;-78
2021/05/29 12:28:02;;;;;;;0.43;0.20;;;;;;;24.67;28.91;99973.88;2012803;80;20202;-78
2021/05/29 12:31:04;;;;;;;2.75;0.28;;;;;;;24.96;27.70;99972.31;2013065;78;24389;-78
2021/05/29 12:34:07;;;;;;;1.02;0.30;;;;;;;24.90;27.08;99979.75;2013155;80;20172;-78
2021/05/29 12:37:10;;;;;;;2.40;0.30;;;;;;;24.60;28.00;99975.16;2014032;80;20172;-79
2021/05/29 12:40:17;;;;;;;1.38;0.50;;;;;;;24.31;28.56;99976.66;2013182;80;20172;-78
2021/05/29 12:43:20;;;;;;;0.91;0.30;;;;;;;24.60;27.27;99968.97;2014645;80;20198;-78
2021/05/29 12:46:24;;;;;;;0.60;0.32;;;;;;;24.93;27.46;99966.28;2011875;78;20872;-79
2021/05/29 12:49:28;;;;;;;0.20;0.20;;;;;;;25.12;27.67;99958.19;2009381;80;20169;-78
2021/05/29 12:52:33;;;;;;;1.16;0.30;;;;;;;25.38;27.69;99957.63;2010333;80;20855;-78
2021/05/29 12:55:36;;;;;;;2.15;0.44;;;;;;;25.25;27.68;99960.09;2008106;80;20181;-78
2021/05/29 12:58:39;;;;;;;2.25;0.21;;;;;;;25.46;26.84;99963.34;2009662;80;20173;-79
2021/05/29 13:09:19;;;;;;;1.48;0.20;;;;;;;25.58;26.83;99964.47;2013012;80;20177;-77
2021/05/29 13:11:52;;;;;;;0.10;0.10;;;;;;;25.67;24.99;99960.41;2009963;80;20214;-78
2021/05/29 13:14:55;;;;;;;4.09;0.80;;;;;;;25.74;25.21;99953.84;2013501;80;20184;-78
2021/05/29 13:18:22;;;;;;;4.29;0.73;;;;;;;25.80;23.46;99954.34;2008278;78;22903;-78
2021/05/29 13:21:24;;;;;;;1.04;0.21;;;;;;;26.10;23.92;99953.50;2007326;80;20751;-79
2021/05/29 13:24:44;;;;;;;0.38;0.29;;;;;;;26.33;24.37;99950.28;2008044;80;20173;-80
2021/05/29 13:27:51;;;;;;;1.13;0.30;;;;;;;26.12;24.00;99948.94;2007828;80;20230;-78
2021/05/29 13:30:54;;;;;;;3.36;0.26;;;;;;;26.09;24.66;99947.31;2007769;78;21397;-79
2021/05/29 13:33:57;;;;;;;0.77;0.20;;;;;;;25.86;24.91;99959.31;2012221;80;20220;-79
2021/05/29 13:37:00;;;;;;;0.85;0.30;;;;;;;25.52;25.20;99944.41;2011427;80;20232;-77
2021/05/29 13:40:06;;;;;;;2.14;0.39;;;;;;;24.71;26.06;99953.31;2013093;80;20226;-74
2021/05/29 13:43:10;;;;;;;5.03;0.88;;;;;;;24.65;27.39;99946.53;2012536;80;20410;-74
2021/05/29 13:46:13;;;;;;;2.46;0.50;;;;;;;24.97;27.97;99957.25;2010692;78;24642;-73
2021/05/29 13:49:16;;;;;;;1.36;0.56;;;;;;;25.22;26.35;99947.00;2006752;80;21272;-75
2021/05/29 13:52:18;;;;;;;2.39;0.50;;;;;;;25.28;25.54;99946.63;2007530;80;20254;-75
2021/05/29 13:55:24;;;;;;;0.61;0.40;;;;;;;25.27;26.13;99942.25;2007268;80;20234;-74
2021/05/29 13:58:27;;;;;;;0.75;0.20;;;;;;;25.48;25.64;99945.50;2007478;80;20765;-75
2021/05/29 14:01:31;;;;;;;0.22;0.10;;;;;;;25.45;24.02;99948.34;2008725;78;22815;-74
2021/05/29 14:04:34;;;;;;;1.52;0.15;;;;;;;25.63;23.52;99940.25;2015434;80;20198;-76
2021/05/29 14:07:37;;;;;;;0.51;0.20;;;;;;;25.97;23.66;99942.72;2012260;80;20513;-79
2021/05/29 14:10:40;;;;;;;0.19;0.17;;;;;;;26.20;23.86;99941.31;2012053;80;20176;-79
2021/05/29 14:13:42;;;;;;;0.47;0.20;;;;;;;25.98;24.11;99940.91;2013748;80;20194;-79
2021/05/29 14:16:46;;;;;;;0.65;0.20;;;;;;;25.72;24.60;99943.28;2008870;78;23049;-78
2021/05/29 14:19:48;;;;;;;1.08;0.20;;;;;;;25.51;23.66;99949.81;2008613;80;20169;-80
2021/05/29 14:22:51;;;;;;;0.46;0.20;;;;;;;25.64;24.27;99949.97;2009602;80;20165;-79
2021/05/29 14:25:54;;;;;;;2.54;0.21;;;;;;;25.77;24.04;99941.22;2007405;80;20228;-78
2021/05/29 14:29:02;;;;;;;1.75;0.30;;;;;;;25.96;24.33;99941.00;2007455;80;20354;-80
2021/05/29 14:32:05;;;;;;;0.77;0.40;;;;;;;26.11;24.77;99940.09;2006528;78;20671;-78
2021/05/29 14:35:09;;;;;;;2.15;0.44;;;;;;;26.11;24.22;99944.56;2007718;80;20254;-79
2021/05/29 14:38:12;;;;;;;0.77;0.20;;;;;;;26.14;25.13;99947.03;2006651;80;20153;-80
2021/05/29 14:41:16;;;;;;;0.86;0.50;;;;;;;25.98;24.93;99949.75;2007730;80;21276;-78
2021/05/29 14:44:19;;;;;;;1.04;0.30;;;;;;;25.48;24.73;99950.81;2007661;80;20169;-79